sensor_id;sensor_type;location;lat;lon;timestamp;P1;durP1;ratioP1;P2;durP2;ratioP2
7835;SDS011;3963;42.658;23.298;2022-07-29T00:01:58;10.57;;;7.13;;
7835;SDS011;3963;42.658;23.298;2022-07-29T00:04:25;13.73;;;8.47;;
7835;SDS011;3963;42.658;23.298;2022-07-29T00:06:52;9.93;;;7.43;;
7835;SDS011;3963;42.658;23.298;2022-07-29T00:09:19;10.87;;;7.47;;
7835;SDS011;3963;42.658;23.298;2022-07-29T00:11:46;9.13;;;7.73;;
7835;SDS011;3963;42.658;23.298;2022-07-29T00:14:14;10.23;;;7.83;;
7835;SDS011;3963;42.658;23.298;2022-07-29T00:16:40;10.87;;;7.50;;
7835;SDS011;3963;42.658;23.298;2022-07-29T00:19:09;10.80;;;7.77;;
7835;SDS011;3963;42.658;23.298;2022-07-29T00:21:35;11.10;;;7.20;;
7835;SDS011;3963;42.658;23.298;2022-07-29T00:24:03;12.53;;;7.70;;
7835;SDS011;3963;42.658;23.298;2022-07-29T00:26:31;10.87;;;7.77;;
7835;SDS011;3963;42.658;23.298;2022-07-29T00:28:58;10.57;;;8.23;;
7835;SDS011;3963;42.658;23.298;2022-07-29T00:31:25;9.63;;;7.67;;
7835;SDS011;3963;42.658;23.298;2022-07-29T00:33:53;9.07;;;7.73;;
7835;SDS011;3963;42.658;23.298;2022-07-29T00:36:21;8.30;;;7.43;;
7835;SDS011;3963;42.658;23.298;2022-07-29T00:38:47;11.13;;;8.17;;
7835;SDS011;3963;42.658;23.298;2022-07-29T00:41:15;10.63;;;8.03;;
7835;SDS011;3963;42.658;23.298;2022-07-29T00:43:42;10.37;;;8.27;;
7835;SDS011;3963;42.658;23.298;2022-07-29T00:46:09;10.47;;;7.70;;
7835;SDS011;3963;42.658;23.298;2022-07-29T00:48:37;12.53;;;7.97;;
7835;SDS011;3963;42.658;23.298;2022-07-29T00:51:05;9.87;;;7.97;;
7835;SDS011;3963;42.658;23.298;2022-07-29T00:53:34;8.93;;;8.03;;
7835;SDS011;3963;42.658;23.298;2022-07-29T00:56:02;12.27;;;8.13;;
7835;SDS011;3963;42.658;23.298;2022-07-29T00:58:30;9.47;;;7.97;;
7835;SDS011;3963;42.658;23.298;2022-07-29T01:00:58;9.83;;;8.40;;
7835;SDS011;3963;42.658;23.298;2022-07-29T01:03:25;12.13;;;8.20;;
7835;SDS011;3963;42.658;23.298;2022-07-29T01:05:51;9.60;;;8.47;;
7835;SDS011;3963;42.658;23.298;2022-07-29T01:08:19;11.70;;;9.67;;
7835;SDS011;3963;42.658;23.298;2022-07-29T01:10:48;11.90;;;9.33;;
7835;SDS011;3963;42.658;23.298;2022-07-29T01:13:17;11.50;;;9.10;;
7835;SDS011;3963;42.658;23.298;2022-07-29T01:15:45;13.70;;;9.87;;
7835;SDS011;3963;42.658;23.298;2022-07-29T01:18:16;13.90;;;10.00;;
7835;SDS011;3963;42.658;23.298;2022-07-29T01:21:00;14.47;;;9.60;;
7835;SDS011;3963;42.658;23.298;2022-07-29T01:23:59;10.47;;;8.97;;
7835;SDS011;3963;42.658;23.298;2022-07-29T01:26:43;13.33;;;8.73;;
7835;SDS011;3963;42.658;23.298;2022-07-29T01:29:16;14.37;;;10.03;;
7835;SDS011;3963;42.658;23.298;2022-07-29T01:31:51;13.37;;;9.60;;
7835;SDS011;3963;42.658;23.298;2022-07-29T01:34:25;11.73;;;9.53;;
7835;SDS011;3963;42.658;23.298;2022-07-29T01:36:59;15.03;;;10.90;;
7835;SDS011;3963;42.658;23.298;2022-07-29T01:39:35;12.87;;;9.13;;
7835;SDS011;3963;42.658;23.298;2022-07-29T01:42:06;12.70;;;9.77;;
7835;SDS011;3963;42.658;23.298;2022-07-29T01:44:41;13.83;;;9.57;;
7835;SDS011;3963;42.658;23.298;2022-07-29T01:47:15;11.70;;;9.17;;
7835;SDS011;3963;42.658;23.298;2022-07-29T01:49:47;13.30;;;9.27;;
7835;SDS011;3963;42.658;23.298;2022-07-29T01:52:19;14.13;;;10.63;;
7835;SDS011;3963;42.658;23.298;2022-07-29T01:54:51;14.30;;;11.60;;
7835;SDS011;3963;42.658;23.298;2022-07-29T01:57:23;14.00;;;11.67;;
7835;SDS011;3963;42.658;23.298;2022-07-29T01:59:55;17.40;;;11.77;;
7835;SDS011;3963;42.658;23.298;2022-07-29T02:02:25;10.47;;;9.33;;
7835;SDS011;3963;42.658;23.298;2022-07-29T02:04:54;10.87;;;9.37;;
7835;SDS011;3963;42.658;23.298;2022-07-29T02:07:23;12.07;;;9.60;;
7835;SDS011;3963;42.658;23.298;2022-07-29T02:09:54;12.67;;;9.83;;
7835;SDS011;3963;42.658;23.298;2022-07-29T02:12:23;14.53;;;10.27;;
7835;SDS011;3963;42.658;23.298;2022-07-29T02:14:52;14.00;;;10.10;;
7835;SDS011;3963;42.658;23.298;2022-07-29T02:17:23;11.30;;;9.60;;
7835;SDS011;3963;42.658;23.298;2022-07-29T02:19:55;12.50;;;9.20;;
7835;SDS011;3963;42.658;23.298;2022-07-29T02:22:25;15.80;;;9.50;;
7835;SDS011;3963;42.658;23.298;2022-07-29T02:24:55;13.40;;;9.77;;
7835;SDS011;3963;42.658;23.298;2022-07-29T02:27:23;16.57;;;11.00;;
7835;SDS011;3963;42.658;23.298;2022-07-29T02:29:55;12.67;;;9.67;;
7835;SDS011;3963;42.658;23.298;2022-07-29T02:32:25;13.67;;;11.20;;
7835;SDS011;3963;42.658;23.298;2022-07-29T02:34:54;13.67;;;10.50;;
7835;SDS011;3963;42.658;23.298;2022-07-29T02:37:22;14.37;;;10.67;;
7835;SDS011;3963;42.658;23.298;2022-07-29T02:39:51;11.17;;;9.83;;
7835;SDS011;3963;42.658;23.298;2022-07-29T02:42:19;15.23;;;11.60;;
7835;SDS011;3963;42.658;23.298;2022-07-29T02:44:48;14.87;;;12.13;;
7835;SDS011;3963;42.658;23.298;2022-07-29T02:47:18;14.77;;;10.93;;
7835;SDS011;3963;42.658;23.298;2022-07-29T02:49:48;13.97;;;10.97;;
7835;SDS011;3963;42.658;23.298;2022-07-29T02:52:22;14.00;;;10.43;;
7835;SDS011;3963;42.658;23.298;2022-07-29T02:54:54;14.73;;;10.93;;
7835;SDS011;3963;42.658;23.298;2022-07-29T02:57:28;18.57;;;11.63;;
7835;SDS011;3963;42.658;23.298;2022-07-29T02:59:59;13.87;;;10.47;;
7835;SDS011;3963;42.658;23.298;2022-07-29T03:02:33;14.67;;;11.27;;
7835;SDS011;3963;42.658;23.298;2022-07-29T03:05:03;12.77;;;11.17;;
7835;SDS011;3963;42.658;23.298;2022-07-29T03:07:31;17.33;;;11.23;;
7835;SDS011;3963;42.658;23.298;2022-07-29T03:10:00;14.40;;;11.33;;
7835;SDS011;3963;42.658;23.298;2022-07-29T03:12:28;15.20;;;11.57;;
7835;SDS011;3963;42.658;23.298;2022-07-29T03:14:56;19.07;;;12.30;;
7835;SDS011;3963;42.658;23.298;2022-07-29T03:17:23;19.67;;;12.80;;
7835;SDS011;3963;42.658;23.298;2022-07-29T03:19:54;16.23;;;12.63;;
7835;SDS011;3963;42.658;23.298;2022-07-29T03:22:21;21.47;;;13.43;;
7835;SDS011;3963;42.658;23.298;2022-07-29T03:24:48;21.47;;;13.37;;
7835;SDS011;3963;42.658;23.298;2022-07-29T03:27:15;16.67;;;13.53;;
7835;SDS011;3963;42.658;23.298;2022-07-29T03:29:42;19.63;;;12.27;;
7835;SDS011;3963;42.658;23.298;2022-07-29T03:32:09;16.37;;;11.37;;
7835;SDS011;3963;42.658;23.298;2022-07-29T03:34:36;17.63;;;12.17;;
7835;SDS011;3963;42.658;23.298;2022-07-29T03:37:05;14.93;;;12.10;;
7835;SDS011;3963;42.658;23.298;2022-07-29T03:39:35;15.83;;;12.03;;
7835;SDS011;3963;42.658;23.298;2022-07-29T03:42:06;14.67;;;11.73;;
7835;SDS011;3963;42.658;23.298;2022-07-29T03:44:37;16.77;;;11.60;;
7835;SDS011;3963;42.658;23.298;2022-07-29T03:47:05;17.40;;;12.33;;
7835;SDS011;3963;42.658;23.298;2022-07-29T03:49:35;15.93;;;12.50;;
7835;SDS011;3963;42.658;23.298;2022-07-29T03:52:05;21.63;;;13.47;;
7835;SDS011;3963;42.658;23.298;2022-07-29T03:54:32;16.33;;;13.80;;
7835;SDS011;3963;42.658;23.298;2022-07-29T03:56:59;16.40;;;13.23;;
7835;SDS011;3963;42.658;23.298;2022-07-29T03:59:28;14.87;;;12.50;;
7835;SDS011;3963;42.658;23.298;2022-07-29T04:01:58;17.80;;;13.00;;
7835;SDS011;3963;42.658;23.298;2022-07-29T04:04:28;16.03;;;13.00;;
7835;SDS011;3963;42.658;23.298;2022-07-29T04:06:55;20.37;;;12.67;;
7835;SDS011;3963;42.658;23.298;2022-07-29T04:09:24;20.67;;;13.23;;
7835;SDS011;3963;42.658;23.298;2022-07-29T04:11:50;20.10;;;13.20;;
7835;SDS011;3963;42.658;23.298;2022-07-29T04:14:18;18.20;;;13.83;;
7835;SDS011;3963;42.658;23.298;2022-07-29T04:16:45;17.87;;;14.20;;
7835;SDS011;3963;42.658;23.298;2022-07-29T04:19:12;20.70;;;13.53;;
7835;SDS011;3963;42.658;23.298;2022-07-29T04:21:39;17.80;;;13.17;;
7835;SDS011;3963;42.658;23.298;2022-07-29T04:24:07;18.17;;;12.93;;
7835;SDS011;3963;42.658;23.298;2022-07-29T04:26:36;16.00;;;13.23;;
7835;SDS011;3963;42.658;23.298;2022-07-29T04:29:03;19.27;;;13.30;;
7835;SDS011;3963;42.658;23.298;2022-07-29T04:31:30;17.70;;;11.50;;
7835;SDS011;3963;42.658;23.298;2022-07-29T04:33:56;17.43;;;13.37;;
7835;SDS011;3963;42.658;23.298;2022-07-29T04:36:23;14.77;;;12.87;;
7835;SDS011;3963;42.658;23.298;2022-07-29T04:38:50;17.63;;;11.67;;
7835;SDS011;3963;42.658;23.298;2022-07-29T04:41:17;16.60;;;11.77;;
7835;SDS011;3963;42.658;23.298;2022-07-29T04:43:45;15.27;;;10.27;;
7835;SDS011;3963;42.658;23.298;2022-07-29T04:46:12;15.47;;;10.47;;
7835;SDS011;3963;42.658;23.298;2022-07-29T04:48:39;13.00;;;10.10;;
7835;SDS011;3963;42.658;23.298;2022-07-29T04:51:06;12.83;;;10.77;;
7835;SDS011;3963;42.658;23.298;2022-07-29T04:53:33;16.40;;;10.67;;
7835;SDS011;3963;42.658;23.298;2022-07-29T04:55:59;16.57;;;11.47;;
7835;SDS011;3963;42.658;23.298;2022-07-29T04:58:26;16.00;;;11.10;;
7835;SDS011;3963;42.658;23.298;2022-07-29T05:00:55;17.20;;;10.93;;
7835;SDS011;3963;42.658;23.298;2022-07-29T05:03:22;14.70;;;10.83;;
7835;SDS011;3963;42.658;23.298;2022-07-29T05:05:48;11.27;;;9.90;;
7835;SDS011;3963;42.658;23.298;2022-07-29T05:08:16;14.30;;;10.10;;
7835;SDS011;3963;42.658;23.298;2022-07-29T05:10:43;13.20;;;9.43;;
7835;SDS011;3963;42.658;23.298;2022-07-29T05:13:09;11.40;;;9.33;;
7835;SDS011;3963;42.658;23.298;2022-07-29T05:15:37;11.20;;;8.73;;
7835;SDS011;3963;42.658;23.298;2022-07-29T05:18:05;14.60;;;9.33;;
7835;SDS011;3963;42.658;23.298;2022-07-29T05:20:32;21.27;;;9.10;;
7835;SDS011;3963;42.658;23.298;2022-07-29T05:23:00;12.87;;;8.80;;
7835;SDS011;3963;42.658;23.298;2022-07-29T05:25:28;11.23;;;8.97;;
7835;SDS011;3963;42.658;23.298;2022-07-29T05:27:56;12.17;;;8.93;;
7835;SDS011;3963;42.658;23.298;2022-07-29T05:30:23;13.50;;;9.30;;
7835;SDS011;3963;42.658;23.298;2022-07-29T05:32:50;8.90;;;7.97;;
7835;SDS011;3963;42.658;23.298;2022-07-29T05:35:19;10.70;;;8.70;;
7835;SDS011;3963;42.658;23.298;2022-07-29T05:37:46;9.43;;;7.90;;
7835;SDS011;3963;42.658;23.298;2022-07-29T05:40:12;10.57;;;8.97;;
7835;SDS011;3963;42.658;23.298;2022-07-29T05:42:39;11.80;;;8.57;;
7835;SDS011;3963;42.658;23.298;2022-07-29T05:45:07;10.50;;;8.37;;
7835;SDS011;3963;42.658;23.298;2022-07-29T05:47:34;13.73;;;8.67;;
7835;SDS011;3963;42.658;23.298;2022-07-29T05:50:01;10.67;;;8.67;;
7835;SDS011;3963;42.658;23.298;2022-07-29T05:52:30;11.67;;;7.23;;
7835;SDS011;3963;42.658;23.298;2022-07-29T05:54:57;12.50;;;7.13;;
7835;SDS011;3963;42.658;23.298;2022-07-29T05:57:26;11.43;;;6.67;;
7835;SDS011;3963;42.658;23.298;2022-07-29T05:59:52;8.17;;;6.93;;
7835;SDS011;3963;42.658;23.298;2022-07-29T06:02:19;9.40;;;6.93;;
7835;SDS011;3963;42.658;23.298;2022-07-29T06:04:46;13.07;;;7.53;;
7835;SDS011;3963;42.658;23.298;2022-07-29T06:07:13;10.57;;;6.83;;
7835;SDS011;3963;42.658;23.298;2022-07-29T06:09:42;14.10;;;7.30;;
7835;SDS011;3963;42.658;23.298;2022-07-29T06:12:09;10.13;;;7.87;;
7835;SDS011;3963;42.658;23.298;2022-07-29T06:14:36;13.13;;;7.50;;
7835;SDS011;3963;42.658;23.298;2022-07-29T06:17:04;9.70;;;7.00;;
7835;SDS011;3963;42.658;23.298;2022-07-29T06:19:33;10.40;;;7.70;;
7835;SDS011;3963;42.658;23.298;2022-07-29T06:22:01;17.47;;;7.67;;
7835;SDS011;3963;42.658;23.298;2022-07-29T06:24:28;12.80;;;7.50;;
7835;SDS011;3963;42.658;23.298;2022-07-29T06:26:56;11.27;;;7.57;;
7835;SDS011;3963;42.658;23.298;2022-07-29T06:29:23;10.43;;;8.43;;
7835;SDS011;3963;42.658;23.298;2022-07-29T06:31:50;12.43;;;7.60;;
7835;SDS011;3963;42.658;23.298;2022-07-29T06:34:17;11.70;;;8.07;;
7835;SDS011;3963;42.658;23.298;2022-07-29T06:36:44;8.53;;;7.50;;
7835;SDS011;3963;42.658;23.298;2022-07-29T06:39:11;10.87;;;7.07;;
7835;SDS011;3963;42.658;23.298;2022-07-29T06:41:38;13.27;;;7.67;;
7835;SDS011;3963;42.658;23.298;2022-07-29T06:44:06;9.97;;;6.57;;
7835;SDS011;3963;42.658;23.298;2022-07-29T06:46:34;11.70;;;6.60;;
7835;SDS011;3963;42.658;23.298;2022-07-29T06:49:01;9.43;;;6.43;;
7835;SDS011;3963;42.658;23.298;2022-07-29T06:51:28;11.03;;;6.03;;
7835;SDS011;3963;42.658;23.298;2022-07-29T06:53:55;9.40;;;6.40;;
7835;SDS011;3963;42.658;23.298;2022-07-29T06:56:23;10.40;;;7.43;;
7835;SDS011;3963;42.658;23.298;2022-07-29T06:58:50;11.23;;;6.80;;
7835;SDS011;3963;42.658;23.298;2022-07-29T07:01:18;9.30;;;6.70;;
7835;SDS011;3963;42.658;23.298;2022-07-29T07:03:45;8.50;;;6.77;;
7835;SDS011;3963;42.658;23.298;2022-07-29T07:06:12;11.43;;;6.57;;
7835;SDS011;3963;42.658;23.298;2022-07-29T07:08:39;9.47;;;6.63;;
7835;SDS011;3963;42.658;23.298;2022-07-29T07:11:06;12.60;;;6.60;;
7835;SDS011;3963;42.658;23.298;2022-07-29T07:13:33;11.57;;;7.10;;
7835;SDS011;3963;42.658;23.298;2022-07-29T07:16:00;9.80;;;6.40;;
7835;SDS011;3963;42.658;23.298;2022-07-29T07:18:28;12.27;;;6.30;;
7835;SDS011;3963;42.658;23.298;2022-07-29T07:20:55;13.37;;;6.53;;
7835;SDS011;3963;42.658;23.298;2022-07-29T07:23:23;10.67;;;6.50;;
7835;SDS011;3963;42.658;23.298;2022-07-29T07:25:50;7.23;;;6.13;;
7835;SDS011;3963;42.658;23.298;2022-07-29T07:28:17;8.27;;;6.03;;
7835;SDS011;3963;42.658;23.298;2022-07-29T07:30:44;7.67;;;5.90;;
7835;SDS011;3963;42.658;23.298;2022-07-29T07:33:11;7.50;;;5.87;;
7835;SDS011;3963;42.658;23.298;2022-07-29T07:35:40;9.13;;;5.97;;
7835;SDS011;3963;42.658;23.298;2022-07-29T07:38:07;8.27;;;5.60;;
7835;SDS011;3963;42.658;23.298;2022-07-29T07:40:33;6.83;;;5.20;;
7835;SDS011;3963;42.658;23.298;2022-07-29T07:43:01;7.80;;;5.40;;
7835;SDS011;3963;42.658;23.298;2022-07-29T07:45:28;9.33;;;5.40;;
7835;SDS011;3963;42.658;23.298;2022-07-29T07:47:57;6.97;;;5.17;;
7835;SDS011;3963;42.658;23.298;2022-07-29T07:50:24;7.75;;;4.82;;
7835;SDS011;3963;42.658;23.298;2022-07-29T07:52:53;6.00;;;4.93;;
7835;SDS011;3963;42.658;23.298;2022-07-29T07:55:22;9.88;;;4.90;;
7835;SDS011;3963;42.658;23.298;2022-07-29T07:57:50;6.80;;;4.65;;
7835;SDS011;3963;42.658;23.298;2022-07-29T08:00:17;5.47;;;4.90;;
7835;SDS011;3963;42.658;23.298;2022-07-29T08:02:44;5.35;;;4.60;;
7835;SDS011;3963;42.658;23.298;2022-07-29T08:05:11;8.18;;;4.70;;
7835;SDS011;3963;42.658;23.298;2022-07-29T08:07:41;5.45;;;4.63;;
7835;SDS011;3963;42.658;23.298;2022-07-29T08:10:10;6.57;;;4.18;;
7835;SDS011;3963;42.658;23.298;2022-07-29T08:12:37;5.45;;;3.88;;
7835;SDS011;3963;42.658;23.298;2022-07-29T08:15:04;5.20;;;4.07;;
7835;SDS011;3963;42.658;23.298;2022-07-29T08:17:33;7.70;;;4.53;;
7835;SDS011;3963;42.658;23.298;2022-07-29T08:19:59;5.35;;;4.40;;
7835;SDS011;3963;42.658;23.298;2022-07-29T08:22:26;4.60;;;4.18;;
7835;SDS011;3963;42.658;23.298;2022-07-29T08:24:53;6.32;;;4.10;;
7835;SDS011;3963;42.658;23.298;2022-07-29T08:27:22;9.02;;;4.28;;
7835;SDS011;3963;42.658;23.298;2022-07-29T08:29:51;5.90;;;4.72;;
7835;SDS011;3963;42.658;23.298;2022-07-29T08:32:18;10.27;;;4.65;;
7835;SDS011;3963;42.658;23.298;2022-07-29T08:34:46;4.57;;;3.90;;
7835;SDS011;3963;42.658;23.298;2022-07-29T08:37:13;5.93;;;4.15;;
7835;SDS011;3963;42.658;23.298;2022-07-29T08:39:40;6.50;;;4.28;;
7835;SDS011;3963;42.658;23.298;2022-07-29T08:42:07;5.38;;;4.15;;
7835;SDS011;3963;42.658;23.298;2022-07-29T08:44:36;5.10;;;4.60;;
7835;SDS011;3963;42.658;23.298;2022-07-29T08:47:03;5.40;;;4.05;;
7835;SDS011;3963;42.658;23.298;2022-07-29T08:49:30;5.68;;;3.97;;
7835;SDS011;3963;42.658;23.298;2022-07-29T08:51:59;6.22;;;3.95;;
7835;SDS011;3963;42.658;23.298;2022-07-29T08:54:27;4.85;;;3.83;;
7835;SDS011;3963;42.658;23.298;2022-07-29T08:56:54;4.90;;;4.18;;
7835;SDS011;3963;42.658;23.298;2022-07-29T08:59:22;4.40;;;3.97;;
7835;SDS011;3963;42.658;23.298;2022-07-29T09:01:53;10.00;;;4.10;;
7835;SDS011;3963;42.658;23.298;2022-07-29T09:04:24;5.38;;;4.00;;
7835;SDS011;3963;42.658;23.298;2022-07-29T09:06:56;5.05;;;4.03;;
7835;SDS011;3963;42.658;23.298;2022-07-29T09:09:27;4.90;;;4.00;;
7835;SDS011;3963;42.658;23.298;2022-07-29T09:11:54;5.45;;;4.85;;
7835;SDS011;3963;42.658;23.298;2022-07-29T09:14:20;9.40;;;4.18;;
7835;SDS011;3963;42.658;23.298;2022-07-29T09:16:48;6.63;;;4.88;;
7835;SDS011;3963;42.658;23.298;2022-07-29T09:19:22;6.95;;;4.40;;
7835;SDS011;3963;42.658;23.298;2022-07-29T09:21:53;6.15;;;4.82;;
7835;SDS011;3963;42.658;23.298;2022-07-29T09:24:24;6.75;;;4.43;;
7835;SDS011;3963;42.658;23.298;2022-07-29T09:27:06;5.82;;;4.20;;
7835;SDS011;3963;42.658;23.298;2022-07-29T09:29:36;4.43;;;3.90;;
7835;SDS011;3963;42.658;23.298;2022-07-29T09:32:05;5.25;;;3.92;;
7835;SDS011;3963;42.658;23.298;2022-07-29T09:34:35;4.47;;;3.80;;
7835;SDS011;3963;42.658;23.298;2022-07-29T09:37:03;4.53;;;3.72;;
7835;SDS011;3963;42.658;23.298;2022-07-29T09:39:32;5.05;;;4.45;;
7835;SDS011;3963;42.658;23.298;2022-07-29T09:42:00;6.00;;;4.10;;
7835;SDS011;3963;42.658;23.298;2022-07-29T09:44:40;5.15;;;3.90;;
7835;SDS011;3963;42.658;23.298;2022-07-29T09:47:09;6.80;;;3.72;;
7835;SDS011;3963;42.658;23.298;2022-07-29T09:49:49;6.05;;;4.13;;
7835;SDS011;3963;42.658;23.298;2022-07-29T09:52:17;6.35;;;4.00;;
7835;SDS011;3963;42.658;23.298;2022-07-29T09:54:45;5.13;;;4.00;;
7835;SDS011;3963;42.658;23.298;2022-07-29T09:57:21;5.85;;;4.30;;
7835;SDS011;3963;42.658;23.298;2022-07-29T09:59:55;7.72;;;4.63;;
7835;SDS011;3963;42.658;23.298;2022-07-29T10:02:24;5.30;;;4.80;;
7835;SDS011;3963;42.658;23.298;2022-07-29T10:04:55;6.00;;;4.53;;
7835;SDS011;3963;42.658;23.298;2022-07-29T10:07:23;5.20;;;4.60;;
7835;SDS011;3963;42.658;23.298;2022-07-29T10:09:55;4.88;;;4.15;;
7835;SDS011;3963;42.658;23.298;2022-07-29T10:12:24;6.00;;;4.57;;
7835;SDS011;3963;42.658;23.298;2022-07-29T10:14:51;6.75;;;4.35;;
7835;SDS011;3963;42.658;23.298;2022-07-29T10:17:18;5.93;;;3.95;;
7835;SDS011;3963;42.658;23.298;2022-07-29T10:19:45;4.80;;;4.30;;
7835;SDS011;3963;42.658;23.298;2022-07-29T10:22:15;4.90;;;4.28;;
7835;SDS011;3963;42.658;23.298;2022-07-29T10:24:42;5.15;;;4.32;;
7835;SDS011;3963;42.658;23.298;2022-07-29T10:27:11;5.05;;;4.22;;
7835;SDS011;3963;42.658;23.298;2022-07-29T10:29:37;6.00;;;4.25;;
7835;SDS011;3963;42.658;23.298;2022-07-29T10:32:16;5.93;;;4.30;;
7835;SDS011;3963;42.658;23.298;2022-07-29T10:35:01;5.97;;;4.35;;
7835;SDS011;3963;42.658;23.298;2022-07-29T10:37:56;5.45;;;4.15;;
7835;SDS011;3963;42.658;23.298;2022-07-29T10:40:36;4.85;;;4.15;;
7835;SDS011;3963;42.658;23.298;2022-07-29T10:43:40;7.05;;;5.18;;
7835;SDS011;3963;42.658;23.298;2022-07-29T10:46:10;6.97;;;4.78;;
7835;SDS011;3963;42.658;23.298;2022-07-29T10:51:54;8.70;;;5.28;;
7835;SDS011;3963;42.658;23.298;2022-07-29T10:57:22;5.20;;;4.70;;
7835;SDS011;3963;42.658;23.298;2022-07-29T11:02:51;10.82;;;5.07;;
7835;SDS011;3963;42.658;23.298;2022-07-29T11:05:20;6.68;;;4.90;;
7835;SDS011;3963;42.658;23.298;2022-07-29T11:10:48;5.22;;;4.70;;
7835;SDS011;3963;42.658;23.298;2022-07-29T11:16:18;5.85;;;4.95;;
7835;SDS011;3963;42.658;23.298;2022-07-29T11:21:50;6.15;;;5.07;;
7835;SDS011;3963;42.658;23.298;2022-07-29T11:24:19;5.43;;;4.90;;
7835;SDS011;3963;42.658;23.298;2022-07-29T11:27:08;6.90;;;4.68;;
7835;SDS011;3963;42.658;23.298;2022-07-29T11:29:41;6.60;;;5.07;;
7835;SDS011;3963;42.658;23.298;2022-07-29T11:32:19;5.60;;;4.72;;
7835;SDS011;3963;42.658;23.298;2022-07-29T11:34:48;6.72;;;4.90;;
7835;SDS011;3963;42.658;23.298;2022-07-29T11:42:45;6.35;;;5.63;;
7835;SDS011;3963;42.658;23.298;2022-07-29T11:45:16;10.95;;;5.18;;
7835;SDS011;3963;42.658;23.298;2022-07-29T11:47:49;7.07;;;5.75;;
7835;SDS011;3963;42.658;23.298;2022-07-29T11:50:26;6.05;;;4.47;;
7835;SDS011;3963;42.658;23.298;2022-07-29T11:52:55;6.68;;;5.10;;
7835;SDS011;3963;42.658;23.298;2022-07-29T11:55:24;6.30;;;5.22;;
7835;SDS011;3963;42.658;23.298;2022-07-29T11:57:54;5.72;;;5.13;;
7835;SDS011;3963;42.658;23.298;2022-07-29T12:00:23;5.68;;;5.05;;
7835;SDS011;3963;42.658;23.298;2022-07-29T12:02:52;5.32;;;4.82;;
7835;SDS011;3963;42.658;23.298;2022-07-29T12:05:21;6.10;;;5.07;;
7835;SDS011;3963;42.658;23.298;2022-07-29T12:07:58;7.60;;;5.05;;
7835;SDS011;3963;42.658;23.298;2022-07-29T12:10:31;7.18;;;5.10;;
7835;SDS011;3963;42.658;23.298;2022-07-29T12:13:00;6.20;;;5.60;;
7835;SDS011;3963;42.658;23.298;2022-07-29T12:15:29;6.82;;;5.15;;
7835;SDS011;3963;42.658;23.298;2022-07-29T12:17:57;9.13;;;5.30;;
7835;SDS011;3963;42.658;23.298;2022-07-29T12:20:25;6.10;;;5.53;;
7835;SDS011;3963;42.658;23.298;2022-07-29T12:22:54;6.57;;;5.00;;
7835;SDS011;3963;42.658;23.298;2022-07-29T12:25:22;5.90;;;5.35;;
7835;SDS011;3963;42.658;23.298;2022-07-29T12:28:00;7.43;;;5.45;;
7835;SDS011;3963;42.658;23.298;2022-07-29T12:30:39;8.27;;;5.00;;
7835;SDS011;3963;42.658;23.298;2022-07-29T12:33:14;6.32;;;5.40;;
7835;SDS011;3963;42.658;23.298;2022-07-29T12:35:44;5.95;;;5.18;;
7835;SDS011;3963;42.658;23.298;2022-07-29T12:38:13;6.22;;;5.57;;
7835;SDS011;3963;42.658;23.298;2022-07-29T12:40:40;5.38;;;4.88;;
7835;SDS011;3963;42.658;23.298;2022-07-29T12:43:10;7.70;;;5.13;;
7835;SDS011;3963;42.658;23.298;2022-07-29T12:45:39;5.07;;;4.57;;
7835;SDS011;3963;42.658;23.298;2022-07-29T12:48:06;10.45;;;5.20;;
7835;SDS011;3963;42.658;23.298;2022-07-29T12:50:34;6.55;;;5.55;;
7835;SDS011;3963;42.658;23.298;2022-07-29T12:53:09;7.68;;;5.35;;
7835;SDS011;3963;42.658;23.298;2022-07-29T12:55:43;6.05;;;5.15;;
7835;SDS011;3963;42.658;23.298;2022-07-29T12:58:24;6.15;;;5.20;;
7835;SDS011;3963;42.658;23.298;2022-07-29T13:01:06;5.85;;;5.32;;
7835;SDS011;3963;42.658;23.298;2022-07-29T13:03:46;6.72;;;5.25;;
7835;SDS011;3963;42.658;23.298;2022-07-29T13:06:27;6.15;;;5.55;;
7835;SDS011;3963;42.658;23.298;2022-07-29T13:09:05;8.63;;;5.78;;
7835;SDS011;3963;42.658;23.298;2022-07-29T13:11:34;5.90;;;5.05;;
7835;SDS011;3963;42.658;23.298;2022-07-29T13:14:03;9.75;;;6.18;;
7835;SDS011;3963;42.658;23.298;2022-07-29T13:16:30;5.65;;;5.07;;
7835;SDS011;3963;42.658;23.298;2022-07-29T13:19:07;6.07;;;5.47;;
7835;SDS011;3963;42.658;23.298;2022-07-29T13:21:36;6.70;;;5.47;;
7835;SDS011;3963;42.658;23.298;2022-07-29T13:24:05;7.93;;;5.82;;
7835;SDS011;3963;42.658;23.298;2022-07-29T13:26:32;5.50;;;5.00;;
7835;SDS011;3963;42.658;23.298;2022-07-29T13:28:59;9.50;;;5.32;;
7835;SDS011;3963;42.658;23.298;2022-07-29T13:31:27;7.03;;;5.43;;
7835;SDS011;3963;42.658;23.298;2022-07-29T13:33:54;7.10;;;5.00;;
7835;SDS011;3963;42.658;23.298;2022-07-29T13:36:21;6.20;;;4.68;;
7835;SDS011;3963;42.658;23.298;2022-07-29T13:38:48;7.00;;;5.90;;
7835;SDS011;3963;42.658;23.298;2022-07-29T13:41:15;6.07;;;5.32;;
7835;SDS011;3963;42.658;23.298;2022-07-29T13:43:41;5.55;;;4.88;;
7835;SDS011;3963;42.658;23.298;2022-07-29T13:46:08;7.05;;;5.13;;
7835;SDS011;3963;42.658;23.298;2022-07-29T13:48:36;5.50;;;4.78;;
7835;SDS011;3963;42.658;23.298;2022-07-29T13:51:03;6.30;;;5.28;;
7835;SDS011;3963;42.658;23.298;2022-07-29T13:53:29;6.38;;;5.35;;
7835;SDS011;3963;42.658;23.298;2022-07-29T13:55:56;6.97;;;5.13;;
7835;SDS011;3963;42.658;23.298;2022-07-29T13:58:23;5.63;;;5.13;;
7835;SDS011;3963;42.658;23.298;2022-07-29T14:00:50;6.35;;;5.75;;
7835;SDS011;3963;42.658;23.298;2022-07-29T14:03:17;6.25;;;5.50;;
7835;SDS011;3963;42.658;23.298;2022-07-29T14:05:46;6.15;;;5.45;;
7835;SDS011;3963;42.658;23.298;2022-07-29T14:08:13;6.40;;;5.57;;
7835;SDS011;3963;42.658;23.298;2022-07-29T14:10:40;6.13;;;5.35;;
7835;SDS011;3963;42.658;23.298;2022-07-29T14:13:07;5.80;;;5.20;;
7835;SDS011;3963;42.658;23.298;2022-07-29T14:15:33;6.75;;;5.10;;
7835;SDS011;3963;42.658;23.298;2022-07-29T14:18:01;5.43;;;4.93;;
7835;SDS011;3963;42.658;23.298;2022-07-29T14:20:28;6.05;;;5.38;;
7835;SDS011;3963;42.658;23.298;2022-07-29T14:22:57;5.43;;;4.93;;
7835;SDS011;3963;42.658;23.298;2022-07-29T14:25:23;5.95;;;5.20;;
7835;SDS011;3963;42.658;23.298;2022-07-29T14:27:50;6.03;;;5.22;;
7835;SDS011;3963;42.658;23.298;2022-07-29T14:30:18;6.35;;;5.03;;
7835;SDS011;3963;42.658;23.298;2022-07-29T14:32:45;7.18;;;5.07;;
7835;SDS011;3963;42.658;23.298;2022-07-29T14:35:12;7.00;;;5.45;;
7835;SDS011;3963;42.658;23.298;2022-07-29T14:37:39;6.32;;;5.68;;
7835;SDS011;3963;42.658;23.298;2022-07-29T14:40:08;7.30;;;5.75;;
7835;SDS011;3963;42.658;23.298;2022-07-29T14:42:36;7.13;;;5.70;;
7835;SDS011;3963;42.658;23.298;2022-07-29T14:45:03;5.68;;;5.05;;
7835;SDS011;3963;42.658;23.298;2022-07-29T14:47:31;6.15;;;5.20;;
7835;SDS011;3963;42.658;23.298;2022-07-29T14:49:58;5.85;;;5.25;;
7835;SDS011;3963;42.658;23.298;2022-07-29T14:52:25;6.43;;;5.47;;
7835;SDS011;3963;42.658;23.298;2022-07-29T14:54:52;6.32;;;5.25;;
7835;SDS011;3963;42.658;23.298;2022-07-29T14:57:20;6.35;;;5.72;;
7835;SDS011;3963;42.658;23.298;2022-07-29T14:59:47;6.25;;;5.32;;
7835;SDS011;3963;42.658;23.298;2022-07-29T15:02:13;7.10;;;5.68;;
7835;SDS011;3963;42.658;23.298;2022-07-29T15:04:40;6.65;;;5.40;;
7835;SDS011;3963;42.658;23.298;2022-07-29T15:07:07;7.43;;;5.80;;
7835;SDS011;3963;42.658;23.298;2022-07-29T15:09:34;7.40;;;5.60;;
7835;SDS011;3963;42.658;23.298;2022-07-29T15:12:01;7.90;;;5.68;;
7835;SDS011;3963;42.658;23.298;2022-07-29T15:14:31;6.65;;;5.18;;
7835;SDS011;3963;42.658;23.298;2022-07-29T15:16:58;6.85;;;6.25;;
7835;SDS011;3963;42.658;23.298;2022-07-29T15:19:24;6.10;;;5.60;;
7835;SDS011;3963;42.658;23.298;2022-07-29T15:21:51;5.90;;;5.40;;
7835;SDS011;3963;42.658;23.298;2022-07-29T15:24:18;6.40;;;5.80;;
7835;SDS011;3963;42.658;23.298;2022-07-29T15:26:46;7.00;;;5.35;;
7835;SDS011;3963;42.658;23.298;2022-07-29T15:29:13;6.70;;;5.32;;